Bei Facebook empfehlenBei Twitter postenGoogle plusPinterest

Das Wetter im Erzgebirge am 02.09.2015

Wetter und Klima am 02.09.2015 Holzhau im Erzgebirge (630m ü.NN)
Letzte gemessene Temperatur und Uhrzeit der Messung23:45:00 Uhr8.60 °C
Temperatur (Maximum / Höchstwert) und Uhrzeit der Messung16:15:00 Uhr19.30 °C
Temperatur (Minimum / Tiefstwert) und Uhrzeit der Messung23:45:008.60 °C
Errechneter Absolutwert der Temperaturschwankungen zwischen Tmin und Tmax des Tages10.70 K
Errechnete Tagesmitteltemperatur13.40521 °C
Gesamt - Niederschlag des Tages (in flüssiger Form)2.59 Liter / m²
Luftdruck (Maximum / Höchstwert) und Zeitpunkt der Messung11:30:00 Uhr1015.10 hPa
Luftdruck (Minimum / Tiefstwert) und Zeitpunkt der Messung00:15:00 Uhr1011.50 hPa
Errechneter Absolutwert der Luftdruckschwankungen des Tages3.60 hPa
Höchste gemessene Windgeschwindigkeit und Uhrzeit der Messung14:45:00 Uhr7.92 km/h
Errechnete Windhäufigkeit in Relation zu den Messwerten des Tages14.58333 %
Niedrigste Windkühle (Windchill) und Zeitpunkt der Messung23:45:00 Uhr8.60 °C
Taupunkt (Maximum / Höchstwert) und Uhrzeit der Messung13:00:00 Uhr13.40 °C
Taupunkt (Minimum / Tiefstwert) und Uhrzeit der Messung23:45:006.70 °C
Anzahl der automatisch eingelesenen Messwerte 96

Detaillierte Wetter- und Klima- Messwerte für den 02.09.2015 in Holzhau im Erzgebirge (630m ü.NN)
ZeitTemperaturLuftdruckRel. LuftfeuchteWindWindrichtungWindchillTaupunktNiederschlag l/m²
23:45:008.60 °C1013.60 hPa88.00 %3.60 km/hOSO8.60 °C6.70 °C2.59
23:30:008.80 °C1013.70 hPa88.00 %6.90 °C2.59
23:15:008.90 °C1013.80 hPa87.00 %6.90 °C2.59
23:00:009.20 °C1013.70 hPa87.00 %7.20 °C2.59
22:45:009.50 °C1013.90 hPa86.00 %7.30 °C2.59
22:30:009.90 °C1014.00 hPa86.00 %7.70 °C2.59
22:15:0010.10 °C1013.90 hPa86.00 %7.90 °C2.59
22:00:0010.40 °C1014.10 hPa85.00 %8.00 °C2.59
21:45:0010.40 °C1014.00 hPa85.00 %8.00 °C2.59
21:30:0010.60 °C1014.00 hPa84.00 %8.00 °C2.59
21:15:0010.80 °C1014.10 hPa83.00 %8.00 °C2.59
21:00:0011.20 °C1014.00 hPa81.00 %8.10 °C2.59
20:45:0011.50 °C1014.00 hPa80.00 %8.20 °C2.59
20:30:0011.90 °C1013.80 hPa79.00 %8.40 °C2.59
20:15:0012.60 °C1013.80 hPa78.00 %8.90 °C2.59
20:00:0013.30 °C1013.80 hPa77.00 %9.40 °C2.59
19:45:0013.60 °C1013.80 hPa76.00 %9.50 °C2.59
19:30:0014.30 °C1013.70 hPa74.00 %9.70 °C2.59
19:15:0014.90 °C1013.60 hPa72.00 %9.90 °C2.59
19:00:0015.80 °C1013.60 hPa70.00 %10.30 °C2.59
18:45:0016.30 °C1013.60 hPa68.00 %10.40 °C2.59
18:30:0016.60 °C1013.60 hPa67.00 %10.50 °C2.59
18:15:0016.90 °C1013.60 hPa66.00 %10.50 °C2.59
18:00:0017.30 °C1013.90 hPa65.00 %10.70 °C2.59
17:45:0017.60 °C1013.70 hPa65.00 %10.90 °C2.59
17:30:0017.80 °C1013.80 hPa65.00 %11.10 °C2.59
17:15:0017.50 °C1013.80 hPa65.00 %10.90 °C2.59
17:00:0017.50 °C1013.60 hPa63.00 %10.40 °C2.59
16:45:0017.90 °C1013.80 hPa62.00 %10.50 °C2.59
16:30:0018.70 °C1013.80 hPa61.00 %11.00 °C2.59
16:15:0019.30 °C1013.90 hPa61.00 %11.60 °C2.59
16:00:0019.30 °C1013.60 hPa62.00 %11.80 °C2.59
15:45:0018.80 °C1013.50 hPa64.00 %11.90 °C2.59
15:30:0017.90 °C1013.80 hPa64.00 %1.44 km/hWNW17.90 °C11.00 °C2.59
15:15:0017.90 °C1013.70 hPa65.00 %11.20 °C2.59
15:00:0017.90 °C1013.80 hPa64.00 %11.00 °C2.59
14:45:0018.10 °C1013.70 hPa67.00 %7.92 km/hSSW18.50 °C11.90 °C2.59
14:30:0017.10 °C1013.80 hPa67.00 %10.90 °C2.59
14:15:0017.50 °C1013.80 hPa66.00 %11.10 °C2.59
14:00:0017.90 °C1014.00 hPa66.00 %11.50 °C2.59
13:45:0018.10 °C1014.20 hPa68.00 %12.10 °C2.59
13:30:0018.40 °C1014.20 hPa69.00 %2.88 km/hNW18.40 °C12.60 °C2.59
13:15:0017.90 °C1014.30 hPa70.00 %12.40 °C2.59
13:00:0018.30 °C1014.60 hPa73.00 %2.88 km/hSW18.30 °C13.40 °C2.59
12:45:0017.30 °C1014.70 hPa75.00 %12.80 °C2.59
12:30:0016.90 °C1014.60 hPa78.00 %3.24 km/hSSW16.90 °C13.00 °C2.59
12:15:0015.50 °C1014.60 hPa81.00 %12.30 °C2.59
12:00:0015.50 °C1014.90 hPa83.00 %12.60 °C2.59
11:45:0014.60 °C1015.00 hPa83.00 %11.70 °C2.59
11:30:0014.70 °C1015.10 hPa84.00 %2.16 km/hWSW14.70 °C12.00 °C2.59
11:15:0014.90 °C1015.00 hPa86.00 %12.60 °C2.59
11:00:0014.50 °C1015.00 hPa87.00 %12.40 °C2.59
10:45:0014.60 °C1015.00 hPa89.00 %5.04 km/hWNW15.00 °C12.80 °C2.59
10:30:0014.30 °C1014.70 hPa91.00 %12.90 °C2.59
10:15:0014.10 °C1014.70 hPa91.00 %12.70 °C2.59
10:00:0013.10 °C1014.80 hPa93.00 %12.00 °C2.59
09:45:0012.90 °C1014.40 hPa93.00 %11.80 °C2.59
09:30:0012.00 °C1014.50 hPa93.00 %10.90 °C2.59
09:15:0011.90 °C1014.40 hPa93.00 %10.80 °C2.59
09:00:0012.00 °C1014.20 hPa94.00 %11.10 °C2.59
08:45:0011.80 °C1014.20 hPa94.00 %10.90 °C2.59
08:30:0011.60 °C1014.10 hPa94.00 %10.70 °C2.59
08:15:0011.20 °C1014.10 hPa93.00 %10.10 °C2.59
08:00:0011.00 °C1014.10 hPa94.00 %10.10 °C2.59
07:45:0010.80 °C1013.90 hPa94.00 %9.90 °C2.59
07:30:0010.40 °C1014.00 hPa94.00 %9.50 °C2.59
07:15:0010.20 °C1014.00 hPa93.00 %9.10 °C2.59
07:00:0010.10 °C1013.90 hPa93.00 %9.00 °C2.59
06:45:0010.10 °C1013.80 hPa93.00 %9.00 °C2.59
06:30:0010.10 °C1013.70 hPa93.00 %9.00 °C2.59
06:15:0010.60 °C1013.50 hPa93.00 %9.50 °C2.59
06:00:0010.70 °C1013.60 hPa93.00 %9.60 °C2.59
05:45:0010.80 °C1013.60 hPa93.00 %3.24 km/hWSW10.80 °C9.70 °C2.59
05:30:0010.80 °C1013.50 hPa93.00 %9.70 °C2.59
05:15:0010.70 °C1013.50 hPa93.00 %9.60 °C2.59
05:00:0010.70 °C1013.40 hPa93.00 %9.60 °C2.59
04:45:0010.90 °C1013.30 hPa93.00 %3.24 km/hWNW10.90 °C9.80 °C2.59
04:30:0010.90 °C1013.40 hPa93.00 %9.80 °C2.59
04:15:0011.10 °C1013.30 hPa93.00 %10.00 °C2.59
04:00:0011.10 °C1013.30 hPa93.00 %10.00 °C2.59
03:45:0011.10 °C1013.20 hPa93.00 %10.00 °C2.59
03:30:0011.20 °C1013.20 hPa93.00 %10.10 °C2.59
03:15:0011.10 °C1013.20 hPa93.00 %5.40 km/hWNW10.90 °C10.00 °C2.59
03:00:0011.20 °C1012.90 hPa93.00 %3.60 km/hNW11.20 °C10.10 °C2.59
02:45:0011.30 °C1012.90 hPa93.00 %10.20 °C2.59
02:30:0011.40 °C1012.70 hPa93.00 %10.30 °C2.59
02:15:0011.60 °C1012.60 hPa93.00 %10.50 °C2.59
02:00:0011.80 °C1012.50 hPa92.00 %10.50 °C2.07
01:45:0011.70 °C1012.20 hPa92.00 %10.40 °C2.07
01:30:0011.60 °C1012.30 hPa92.00 %10.30 °C2.07
01:15:0011.90 °C1012.10 hPa92.00 %10.60 °C1.55
01:00:0012.10 °C1012.20 hPa92.00 %10.80 °C1.55
00:45:0012.20 °C1012.00 hPa92.00 %3.96 km/hWNW12.20 °C10.90 °C1.55
00:30:0012.30 °C1011.70 hPa91.00 %10.90 °C1.04
00:15:0012.50 °C1011.50 hPa91.00 %11.10 °C0.52
00:00:0012.70 °C1011.50 hPa91.00 %2.88 km/hNNO12.70 °C11.30 °C 

Permanenter Link zu dieser Seite: Wetter im Erzgebirge am 02.09.2015
Performance-Info: Die Erstellung der Seite / Statistik(en) / Tabelle(n) erforderte 5 Datenbankserver-Abfrage(n) und dauerte 121 Millisekunden. (Dieser Messwert ist von der Gesamt-Auslastung des Servers abhängig.)
Erzgebirge - Wetter | Erzgebirge - Wetter (Mobilgeräte) | Komplette Klimadatenbank